Concrete, North Dakota
Current Conditions -  °F | °C
As of 7:55 AM on Monday 22 Dec 2014 (Local Time) from K2C8 Reporting Station
Haze Haze  
Wind Chill: 25°   Ceiling: 100
Heat Index: 32°   Visibility: 2mi
Dew Point: 32°   Wind: 8mph
Humidity: 100%   Direction: 100°E
Pressure: 29.56"   Gusts: NA
Location:  48.8218°N, 97.697°W
Report Text: K2C8 221355Z AUTO 10007KT 2SM BR OVC001 00/00 A2956 RMK AO2
Loading
Personal Weather Stations






























Interactive Weather Map New forecast layout! Learn more

10-Day Weather Forecast

Advertisements
Track Severe Weather on mobile